Time;durP1;ratioP1;P1;durP2;ratioP2;P2;SDS_P1;SDS_P2;PMS_P1;PMS_P2;Temp;Humidity;BMP_temperature;BMP_pressure;BME280_temperature;BME280_humidity;BME280_pressure;Samples;Min_cycle;Max_cycle;Signal;HPM_P1;HPM_P2
2021/12/19 00:03:47;;;;;;;83.03;75.47;;;;;;;9.08;100.00;104007.19;1985626;71;40161;-75
2021/12/19 00:09:20;;;;;;;84.63;76.43;;;;;;;9.23;100.00;103994.64;1982048;71;39604;-74
2021/12/19 00:15:10;;;;;;;83.03;75.50;;;;;;;9.17;100.00;103988.49;1824986;76;86213;-75
2021/12/19 00:20:54;;;;;;;83.50;75.83;;;;;;;9.11;100.00;103986.54;1890833;73;86764;-82
2021/12/19 00:26:38;;;;;;;76.33;68.50;;;;;;;9.01;100.00;103985.47;1914778;73;86401;-76
2021/12/19 00:32:21;;;;;;;76.97;69.20;;;;;;;9.11;100.00;103983.77;1940405;71;39593;-76
2021/12/19 00:38:06;;;;;;;80.20;72.17;;;;;;;9.02;100.00;103982.18;1850937;75;86319;-82
2021/12/19 00:43:55;;;;;;;77.10;69.20;;;;;;;8.85;100.00;103979.34;1876250;74;86519;-82
2021/12/19 00:49:40;;;;;;;75.50;67.77;;;;;;;8.86;100.00;103974.96;1906534;74;86851;-81
2021/12/19 00:55:27;;;;;;;81.50;73.50;;;;;;;8.80;100.00;103967.45;1976238;71;39641;-74
2021/12/19 01:01:14;;;;;;;71.43;63.90;;;;;;;8.87;100.00;103967.51;1839042;76;86600;-75
2021/12/19 01:07:01;;;;;;;76.80;68.77;;;;;;;8.96;100.00;103971.87;1801632;78;85963;-77
2021/12/19 01:12:45;;;;;;;71.90;64.23;;;;;;;8.95;100.00;103972.39;1793172;79;86705;-81
2021/12/19 01:18:33;;;;;;;73.20;65.03;;;;;;;8.90;100.00;103973.51;1910525;73;86179;-73
2021/12/19 01:24:18;;;;;;;72.20;64.30;;;;;;;8.77;100.00;103969.21;1987188;71;39633;-75
2021/12/19 01:30:01;;;;;;;71.70;63.47;;;;;;;8.71;100.00;103964.48;1893426;74;86498;-74
2021/12/19 01:35:46;;;;;;;79.67;64.37;;;;;;;8.74;100.00;103961.83;1884271;74;86470;-76
2021/12/19 01:41:30;;;;;;;68.77;61.47;;;;;;;8.79;100.00;103959.33;1922804;73;86153;-75
2021/12/19 01:47:15;;;;;;;72.53;62.20;;;;;;;8.64;100.00;103942.77;1894972;74;86586;-81
2021/12/19 01:53:00;;;;;;;67.50;60.43;;;;;;;8.52;100.00;103956.27;1809705;78;86408;-72
2021/12/19 01:58:46;;;;;;;71.03;61.80;;;;;;;8.49;100.00;103947.49;1829524;78;86397;-77
2021/12/19 02:04:32;;;;;;;70.60;60.80;;;;;;;8.38;100.00;103951.65;1936454;72;86649;-82
2021/12/19 02:10:21;;;;;;;73.90;60.20;;;;;;;8.39;100.00;103946.94;1971764;71;39493;-74
2021/12/19 02:16:07;;;;;;;69.73;59.90;;;;;;;8.52;100.00;103947.09;1974433;71;85479;-75
2021/12/19 02:25:07;;;;;;;70.43;59.90;;;;;;;8.29;100.00;103943.61;1974630;71;86843;-82
2021/12/19 02:30:51;;;;;;;64.43;57.40;;;;;;;8.32;100.00;103944.10;1881670;74;86164;-75
2021/12/19 02:36:50;;;;;;;65.10;58.10;;;;;;;8.24;100.00;103942.80;1913768;73;86453;-73
2021/12/19 02:48:32;;;;;;;63.57;56.97;;;;;;;8.29;100.00;103926.98;1942423;72;86085;-76
2021/12/19 02:54:16;;;;;;;63.17;56.63;;;;;;;8.33;100.00;103920.90;1985748;71;39564;-82
2021/12/19 03:00:02;;;;;;;65.27;58.40;;;;;;;8.38;100.00;103924.47;1893436;74;86365;-74
2021/12/19 03:05:46;;;;;;;59.70;54.10;;;;;;;8.34;100.00;103914.31;1887519;74;86495;-77
2021/12/19 03:23:34;;;;;;;58.10;52.53;;;;;;;8.12;100.00;103900.05;1916859;74;86408;-83
2021/12/19 03:29:17;;;;;;;61.83;55.77;;;;;;;8.27;100.00;103896.70;1947355;71;39638;-78
2021/12/19 03:35:02;;;;;;;57.23;51.77;;;;;;;8.34;100.00;103890.77;1881232;75;85330;-73
2021/12/19 03:41:06;;;;;;;58.40;52.67;;;;;;;8.14;100.00;103882.18;1885804;73;85451;-73
2021/12/19 03:46:39;;;;;;;57.27;52.07;;;;;;;8.08;100.00;103886.27;1908977;74;85402;-74
2021/12/19 03:52:23;;;;;;;55.40;49.93;;;;;;;8.01;100.00;103879.77;1973340;71;39755;-82
2021/12/19 03:58:10;;;;;;;53.07;48.47;;;;;;;7.92;100.00;103871.24;1825397;75;86885;-74
2021/12/19 04:04:00;;;;;;;52.40;47.57;;;;;;;7.85;100.00;103872.56;1809954;78;86855;-75
2021/12/19 04:09:48;;;;;;;52.67;47.90;;;;;;;7.78;100.00;103866.95;1908957;74;86286;-76
2021/12/19 04:15:36;;;;;;;53.87;48.93;;;;;;;7.82;100.00;103857.73;1913496;73;86217;-74
2021/12/19 04:21:26;;;;;;;53.53;48.73;;;;;;;7.79;100.00;103849.80;1986078;71;39551;-74
2021/12/19 04:27:10;;;;;;;52.63;47.97;;;;;;;7.63;100.00;103851.41;1861370;76;86188;-77
2021/12/19 04:33:00;;;;;;;51.73;47.40;;;;;;;7.60;100.00;103845.74;1842178;76;85453;-73
2021/12/19 04:39:17;;;;;;;51.63;47.20;;;;;;;7.75;100.00;103844.31;1876405;75;86425;-74
2021/12/19 04:51:06;;;;;;;51.63;47.53;;;;;;;7.50;100.00;103850.70;1888724;73;86796;-77
2021/12/19 04:56:49;;;;;;;52.33;48.00;;;;;;;7.54;100.00;103846.50;1909111;72;86511;-75
2021/12/19 05:14:40;;;;;;;52.87;48.37;;;;;;;7.28;100.00;103822.09;1918267;73;86626;-77
2021/12/19 05:20:33;;;;;;;52.50;48.00;;;;;;;7.27;100.00;103827.84;1929867;72;39624;-73
2021/12/19 05:26:18;;;;;;;54.23;49.90;;;;;;;7.15;100.00;103817.75;1975415;70;39474;-75
2021/12/19 05:32:00;;;;;;;51.37;47.07;;;;;;;7.22;100.00;103815.09;1884338;74;86305;-76
2021/12/19 05:49:51;;;;;;;50.30;46.07;;;;;;;6.89;100.00;103815.13;1871952;75;86683;-76
2021/12/19 05:55:35;;;;;;;51.27;46.07;;;;;;;7.11;100.00;103813.66;1919410;73;86420;-76
2021/12/19 06:01:20;;;;;;;49.80;45.60;;;;;;;6.93;100.00;103810.94;1986962;71;39720;-77
2021/12/19 06:07:05;;;;;;;47.97;44.03;;;;;;;6.80;100.00;103808.28;1849906;76;86284;-76
2021/12/19 06:12:50;;;;;;;51.40;47.07;;;;;;;6.72;100.00;103799.21;1881530;75;86319;-77
2021/12/19 06:18:34;;;;;;;51.10;47.00;;;;;;;6.67;100.00;103811.38;1927609;73;86498;-77
2021/12/19 06:24:19;;;;;;;50.00;45.80;;;;;;;6.74;100.00;103799.90;1983282;71;39571;-77
2021/12/19 06:30:03;;;;;;;46.77;42.77;;;;;;;6.61;100.00;103792.77;1882419;74;86543;-76
2021/12/19 06:35:51;;;;;;;49.60;45.30;;;;;;;6.69;100.00;103785.27;1843826;76;86100;-73
2021/12/19 06:41:39;;;;;;;48.27;44.20;;;;;;;6.56;100.00;103783.66;1798340;77;86616;-73
2021/12/19 06:47:26;;;;;;;51.37;46.90;;;;;;;6.48;100.00;103773.22;1894535;73;39628;-82
2021/12/19 06:53:11;;;;;;;50.63;45.77;;;;;;;6.56;100.00;103774.52;1835523;76;86058;-75
2021/12/19 06:58:57;;;;;;;49.93;45.37;;;;;;;6.57;100.00;103777.11;1801697;78;86706;-74
2021/12/19 07:04:45;;;;;;;48.47;44.37;;;;;;;6.36;100.00;103773.67;1891463;74;86315;-73
2021/12/19 07:10:29;;;;;;;48.20;43.40;;;;;;;6.27;100.00;103770.64;1916210;74;86284;-77
2021/12/19 07:16:14;;;;;;;49.20;43.13;;;;;;;6.33;100.00;103769.88;1892270;74;86069;-76
2021/12/19 07:21:59;;;;;;;49.10;44.03;;;;;;;6.47;100.00;103767.34;1799262;78;86851;-76
2021/12/19 07:27:46;;;;;;;49.17;44.20;;;;;;;6.43;100.00;103775.67;1817667;77;86276;-82
2021/12/19 07:33:29;;;;;;;48.47;44.07;;;;;;;6.29;100.00;103766.33;1822243;77;86474;-77
2021/12/19 07:39:22;;;;;;;48.17;43.57;;;;;;;6.44;100.00;103760.31;1886639;74;86063;-74
2021/12/19 07:44:59;;;;;;;49.20;44.67;;;;;;;6.08;100.00;103753.19;1801841;78;86792;-74
2021/12/19 07:54:10;;;;;;;49.97;45.17;;;;;;;6.18;100.00;103762.09;1811594;77;86390;-83
2021/12/19 07:59:50;;;;;;;52.83;48.37;;;;;;;6.06;100.00;103753.05;1882900;75;86402;-74
2021/12/19 08:05:35;;;;;;;46.60;42.60;;;;;;;6.01;100.00;103756.88;1946379;73;86413;-76
2021/12/19 08:23:32;;;;;;;54.43;43.33;;;;;;;5.85;100.00;103744.04;1914628;74;86499;-76
2021/12/19 08:32:29;;;;;;;47.27;42.73;;;;;;;5.90;100.00;103747.15;1924975;71;40392;-83
2021/12/19 08:38:13;;;;;;;52.20;47.20;;;;;;;6.22;100.00;103749.63;1810535;78;86455;-77
2021/12/19 08:43:58;;;;;;;57.33;49.10;;;;;;;6.15;100.00;103747.29;1807650;78;86008;-75
2021/12/19 08:49:45;;;;;;;54.03;48.67;;;;;;;6.19;100.00;103745.02;1974699;71;86895;-73
2021/12/19 08:55:30;;;;;;;52.07;46.67;;;;;;;5.98;100.00;103748.46;1906019;72;86212;-76
2021/12/19 09:04:34;;;;;;;53.20;47.97;;;;;;;6.14;100.00;103744.19;1921601;72;86324;-73
2021/12/19 09:10:21;;;;;;;53.67;48.80;;;;;;;5.98;100.00;103746.22;1906614;74;40369;-81
2021/12/19 09:22:33;;;;;;;54.33;50.00;;;;;;;6.03;100.00;103742.39;1799473;78;86360;-75
2021/12/19 09:28:21;;;;;;;49.37;45.03;;;;;;;6.20;100.00;103745.36;1939429;72;39649;-77
2021/12/19 09:34:07;;;;;;;48.73;44.40;;;;;;;6.03;100.00;103741.87;1861945;76;86438;-75
2021/12/19 09:39:52;;;;;;;51.90;47.40;;;;;;;5.72;100.00;103740.51;1864100;75;86859;-81
2021/12/19 09:45:37;;;;;;;48.07;44.33;;;;;;;5.53;100.00;103747.85;1909705;73;86690;-77
2021/12/19 09:51:21;;;;;;;46.43;42.77;;;;;;;5.60;100.00;103755.76;1849450;74;39756;-81
2021/12/19 09:57:06;;;;;;;50.60;46.83;;;;;;;5.61;100.00;103745.05;1844861;76;86550;-75
2021/12/19 10:02:51;;;;;;;50.10;46.47;;;;;;;5.57;100.00;103762.99;1874814;76;85984;-81
2021/12/19 10:08:40;;;;;;;49.00;45.30;;;;;;;5.51;100.00;103770.62;1919516;74;86433;-77
2021/12/19 10:14:31;;;;;;;51.23;47.13;;;;;;;5.43;100.00;103770.12;1919423;73;86322;-74
2021/12/19 10:20:19;;;;;;;50.70;46.70;;;;;;;5.25;100.00;103767.30;1981837;71;39673;-77
2021/12/19 10:26:06;;;;;;;49.70;45.90;;;;;;;5.26;100.00;103766.27;1850279;76;85730;-83
2021/12/19 10:32:07;;;;;;;47.20;43.60;;;;;;;5.52;100.00;103761.84;1934995;73;86297;-83
2021/12/19 10:38:08;;;;;;;46.00;42.50;;;;;;;5.52;100.00;103757.16;1991222;71;86722;-83
2021/12/19 10:47:21;;;;;;;52.43;48.50;;;;;;;5.58;100.00;103744.55;1855298;75;86418;-74
2021/12/19 10:49:52;;;;;;;59.00;53.97;;;;;;;5.55;100.00;103749.06;1796961;77;934760;-82
2021/12/19 10:52:38;;;;;;;57.00;51.87;;;;;;;5.43;100.00;103743.94;1766316;78;938857;-81
2021/12/19 10:55:12;;;;;;;61.18;55.38;;;;;;;5.53;100.00;103745.09;1755842;79;938716;-81
2021/12/19 10:57:45;;;;;;;59.10;54.30;;;;;;;5.52;100.00;103741.16;1769107;79;939011;-81
2021/12/19 11:03:45;;;;;;;55.23;50.93;;;;;;;5.60;100.00;103732.84;1815908;77;86584;-74
2021/12/19 11:09:30;;;;;;;58.33;53.70;;;;;;;5.61;100.00;103720.73;1816188;77;86296;-77
2021/12/19 11:15:16;;;;;;;59.53;55.10;;;;;;;5.72;100.00;103712.06;1985090;71;39554;-77
2021/12/19 11:20:54;;;;;;;55.73;51.07;;;;;;;5.85;100.00;103698.52;1899894;73;86695;-81
2021/12/19 11:30:04;;;;;;;56.33;51.73;;;;;;;5.93;100.00;103681.41;1881502;74;85624;-76
2021/12/19 11:38:59;;;;;;;58.57;53.20;;;;;;;5.88;100.00;103660.94;1797258;77;86810;-77
2021/12/19 11:45:01;;;;;;;60.23;54.83;;;;;;;5.97;100.00;103652.92;1895716;75;86609;-82
2021/12/19 11:50:55;;;;;;;61.13;55.83;;;;;;;6.06;100.00;103632.49;1886378;73;86023;-74
2021/12/19 11:57:02;;;;;;;59.20;53.80;;;;;;;6.30;100.00;103620.33;1900550;74;86638;-73
2021/12/19 12:02:49;;;;;;;58.93;53.40;;;;;;;6.28;100.00;103612.25;1812590;77;86345;-75
2021/12/19 12:08:38;;;;;;;58.63;52.90;;;;;;;6.14;100.00;103608.09;1920090;71;85311;-76
2021/12/19 12:14:29;;;;;;;56.60;51.57;;;;;;;6.19;100.00;103605.11;1977036;71;40341;-74
2021/12/19 12:20:20;;;;;;;57.20;52.03;;;;;;;6.27;100.00;103600.88;1882407;75;85954;-77
2021/12/19 12:26:26;;;;;;;57.17;52.63;;;;;;;6.50;100.00;103580.59;1942051;72;86423;-77
2021/12/19 12:32:10;;;;;;;56.67;52.07;;;;;;;6.70;100.00;103580.33;1952449;72;86739;-73
2021/12/19 12:37:56;;;;;;;56.23;51.73;;;;;;;6.61;100.00;103578.72;1900414;73;86105;-83
2021/12/19 12:43:40;;;;;;;55.53;50.87;;;;;;;6.54;100.00;103576.41;1923527;73;86206;-75
2021/12/19 12:49:34;;;;;;;54.57;50.03;;;;;;;6.57;100.00;103574.63;1867983;75;85499;-77
2021/12/19 12:55:18;;;;;;;57.23;52.43;;;;;;;6.53;100.00;103576.92;1986769;70;39559;-74
2021/12/19 13:01:15;;;;;;;57.53;52.90;;;;;;;6.51;100.00;103566.58;1886022;74;86567;-77
2021/12/19 13:07:23;;;;;;;56.37;51.67;;;;;;;6.74;100.00;103552.13;1933532;71;39671;-73
2021/12/19 13:16:27;;;;;;;57.10;52.50;;;;;;;7.02;100.00;103550.84;1980483;71;39526;-82
2021/12/19 13:22:14;;;;;;;52.07;48.03;;;;;;;7.09;100.00;103548.16;1827614;76;86614;-84
2021/12/19 13:28:04;;;;;;;58.60;53.90;;;;;;;6.94;100.00;103539.05;1875794;75;86361;-82
2021/12/19 13:33:58;;;;;;;54.77;50.77;;;;;;;6.73;100.00;103532.45;1872981;74;86889;-74
2021/12/19 13:39:49;;;;;;;52.73;48.57;;;;;;;6.72;100.00;103532.11;1927830;72;86411;-81
2021/12/19 13:48:59;;;;;;;51.03;47.27;;;;;;;6.82;100.00;103523.00;1796289;78;85544;-80
2021/12/19 13:54:48;;;;;;;51.13;47.33;;;;;;;6.85;100.00;103503.25;1909337;74;85683;-82
2021/12/19 14:00:37;;;;;;;51.27;47.47;;;;;;;6.90;100.00;103504.57;1817390;77;86164;-83
2021/12/19 14:06:26;;;;;;;52.30;48.50;;;;;;;7.06;100.00;103502.41;1981627;70;39588;-77
2021/12/19 14:12:25;;;;;;;52.60;48.60;;;;;;;7.12;100.00;103495.24;1840969;76;86630;-80
2021/12/19 14:17:57;;;;;;;53.60;49.60;;;;;;;7.04;100.00;103493.47;1909457;73;85657;-74
2021/12/19 14:24:08;;;;;;;53.53;49.37;;;;;;;6.97;100.00;103484.27;1948536;73;86555;-82
2021/12/19 14:29:54;;;;;;;52.90;49.10;;;;;;;6.84;100.00;103486.89;1885345;73;86609;-77
2021/12/19 14:35:43;;;;;;;50.60;46.90;;;;;;;6.65;100.00;103488.89;1804461;77;86475;-80
2021/12/19 14:41:32;;;;;;;53.28;49.27;;;;;;;6.84;100.00;103484.99;1803043;78;86585;-76
2021/12/19 14:47:36;;;;;;;53.93;49.83;;;;;;;6.97;100.00;103479.27;1938489;72;39673;-74
2021/12/19 14:53:37;;;;;;;52.13;48.23;;;;;;;6.85;100.00;103470.09;1944382;73;86687;-77
2021/12/19 14:59:27;;;;;;;49.80;46.10;;;;;;;6.60;100.00;103467.91;1986156;71;39587;-77
2021/12/19 15:05:13;;;;;;;53.73;49.67;;;;;;;6.84;100.00;103461.50;1943239;73;86551;-81
2021/12/19 15:10:59;;;;;;;53.30;49.30;;;;;;;6.65;100.00;103457.98;1808574;78;86151;-76
2021/12/19 15:16:45;;;;;;;50.60;46.70;;;;;;;6.51;100.00;103454.73;1960195;71;86835;-83
2021/12/19 15:22:31;;;;;;;51.73;47.83;;;;;;;6.58;100.00;103447.41;1899786;72;86561;-83
2021/12/19 15:31:36;;;;;;;53.30;49.37;;;;;;;6.48;100.00;103428.91;1892350;73;86297;-81
2021/12/19 15:34:06;;;;;;;52.67;48.67;;;;;;;6.61;100.00;103442.86;1836600;75;935508;-80
2021/12/19 15:39:50;;;;;;;54.30;50.20;;;;;;;6.62;100.00;103434.91;1833563;77;86463;-75
2021/12/19 15:45:31;;;;;;;53.07;49.07;;;;;;;6.49;100.00;103438.91;1900367;74;39558;-73
2021/12/19 15:51:16;;;;;;;52.13;48.07;;;;;;;6.34;100.00;103437.55;1986654;71;39564;-74
2021/12/19 15:57:02;;;;;;;53.53;49.37;;;;;;;6.26;100.00;103432.15;1875350;74;86172;-73
2021/12/19 16:02:41;;;;;;;54.87;50.43;;;;;;;6.19;100.00;103436.74;1876718;75;86832;-74
2021/12/19 16:08:26;;;;;;;65.70;61.00;;;;;;;6.23;100.00;103428.41;1977704;71;40349;-74
2021/12/19 16:14:13;;;;;;;58.40;54.00;;;;;;;6.20;100.00;103438.46;1845668;76;86734;-74
2021/12/19 16:20:11;;;;;;;61.00;56.50;;;;;;;6.13;100.00;103438.88;1820400;78;86185;-74
2021/12/19 16:25:59;;;;;;;59.50;55.30;;;;;;;6.01;100.00;103439.56;1801023;78;86004;-74
2021/12/19 16:31:44;;;;;;;50.03;46.03;;;;;;;5.85;100.00;103450.25;1816735;77;86537;-73
2021/12/19 16:37:27;;;;;;;56.97;52.80;;;;;;;5.76;100.00;103417.77;1984510;71;39538;-75
2021/12/19 16:43:36;;;;;;;59.80;55.40;;;;;;;5.82;100.00;103444.58;1854402;75;86790;-80
2021/12/19 16:52:33;;;;;;;57.70;53.27;;;;;;;5.53;100.00;103453.36;1910965;74;86672;-82
2021/12/19 16:58:22;;;;;;;57.47;52.97;;;;;;;5.43;100.00;103443.45;1928621;73;33056;-83
2021/12/19 17:04:08;;;;;;;58.73;54.37;;;;;;;5.56;100.00;103446.11;2005661;71;33048;-74
2021/12/19 17:09:54;;;;;;;57.10;52.83;;;;;;;5.35;100.00;103457.84;2004572;71;32746;-76
2021/12/19 17:19:00;;;;;;;56.70;52.73;;;;;;;5.27;100.00;103466.19;1939015;73;33030;-74
2021/12/19 17:31:30;;;;;;;54.97;51.07;;;;;;;5.29;100.00;103466.36;1985591;70;32893;-83
2021/12/19 17:37:14;;;;;;;53.47;49.30;;;;;;;5.10;100.00;103461.86;2007831;71;32899;-75
2021/12/19 17:46:22;;;;;;;51.57;47.47;;;;;;;5.07;100.00;103463.62;2048625;69;33204;-83
2021/12/19 17:52:10;;;;;;;53.83;49.53;;;;;;;5.11;100.00;103464.96;2016659;71;32873;-76
2021/12/19 17:57:54;;;;;;;53.77;49.90;;;;;;;5.21;100.00;103462.30;2016726;71;32831;-75
2021/12/19 18:03:48;;;;;;;55.53;51.53;;;;;;;5.18;100.00;103464.02;1930313;68;33623;-71
2021/12/19 18:09:28;;;;;;;56.93;52.63;;;;;;;5.27;100.00;103451.89;2016319;71;32926;-72
2021/12/19 18:15:16;;;;;;;56.10;51.90;;;;;;;5.28;100.00;103459.12;1998455;71;32894;-72
2021/12/19 18:21:01;;;;;;;52.07;47.97;;;;;;;5.14;100.00;103458.55;2012886;71;32812;-72
2021/12/19 18:26:45;;;;;;;52.07;47.87;;;;;;;5.19;100.00;103446.45;1994003;71;32758;-74
2021/12/19 18:32:31;;;;;;;53.53;49.23;;;;;;;5.38;100.00;103439.05;2002318;71;32832;-73
2021/12/19 18:38:16;;;;;;;53.40;49.10;;;;;;;5.33;100.00;103436.52;2013186;71;32823;-74
2021/12/19 18:44:09;;;;;;;52.57;48.17;;;;;;;5.14;100.00;103430.14;2007649;71;32824;-73
2021/12/19 18:49:55;;;;;;;52.23;48.03;;;;;;;5.52;100.00;103425.48;1998453;71;32950;-73
2021/12/19 18:55:46;;;;;;;53.07;48.77;;;;;;;5.43;100.00;103413.13;2011203;71;32955;-72
2021/12/19 19:01:34;;;;;;;52.23;48.00;;;;;;;5.44;100.00;103417.61;2004306;70;33485;-74
2021/12/19 19:07:12;;;;;;;52.20;47.73;;;;;;;5.70;100.00;103414.39;2007868;71;32917;-72
2021/12/19 19:12:54;;;;;;;53.53;48.80;;;;;;;5.78;100.00;103412.91;2007796;71;32846;-74
2021/12/19 19:18:39;;;;;;;51.83;47.37;;;;;;;5.85;100.00;103404.73;2009612;71;32830;-73
2021/12/19 19:24:24;;;;;;;51.90;47.40;;;;;;;5.89;100.00;103395.06;2007776;71;32817;-74
2021/12/19 19:30:12;;;;;;;53.23;48.60;;;;;;;5.76;100.00;103386.06;1991693;71;32907;-73
2021/12/19 19:35:58;;;;;;;50.53;46.13;;;;;;;5.82;100.00;103395.44;2001207;71;32822;-74
2021/12/19 19:41:55;;;;;;;50.53;46.23;;;;;;;5.93;100.00;103385.35;2008475;71;33209;-73
2021/12/19 19:53:31;;;;;;;49.50;45.33;;;;;;;5.78;100.00;103372.05;2011708;71;32754;-74
2021/12/19 19:59:20;;;;;;;50.77;46.50;;;;;;;5.91;100.00;103358.47;2000645;71;32891;-72
2021/12/19 20:05:07;;;;;;;50.60;46.10;;;;;;;5.99;100.00;103368.02;2013246;71;32831;-72
2021/12/19 20:10:52;;;;;;;51.73;47.33;;;;;;;6.15;100.00;103350.39;2000640;71;32756;-74
2021/12/19 20:16:37;;;;;;;50.00;45.70;;;;;;;6.20;100.00;103353.42;1977666;71;32853;-72
2021/12/19 20:22:22;;;;;;;52.17;47.93;;;;;;;6.16;100.00;103341.89;2004262;71;32763;-74
2021/12/19 20:28:06;;;;;;;49.97;45.53;;;;;;;6.10;100.00;103346.83;1976947;72;33037;-70
2021/12/19 20:33:52;;;;;;;50.40;46.30;;;;;;;6.32;100.00;103340.29;2011147;71;32866;-71
2021/12/19 20:39:37;;;;;;;50.83;46.60;;;;;;;6.21;100.00;103333.89;2000428;71;32827;-73
2021/12/19 20:45:27;;;;;;;48.40;44.40;;;;;;;6.28;100.00;103346.40;2000747;71;32769;-72
2021/12/19 20:51:12;;;;;;;49.70;45.50;;;;;;;6.47;100.00;103336.59;2011411;71;33425;-72
2021/12/19 20:56:58;;;;;;;52.60;48.57;;;;;;;6.46;100.00;103352.30;2002644;70;33219;-72
2021/12/19 21:02:42;;;;;;;53.20;48.73;;;;;;;6.49;100.00;103355.21;1991634;71;32791;-72
2021/12/19 21:08:28;;;;;;;53.93;49.53;;;;;;;6.51;100.00;103339.28;2009558;71;32809;-73
2021/12/19 21:14:27;;;;;;;51.33;46.93;;;;;;;6.49;100.00;103333.98;2009498;71;33499;-72
2021/12/19 21:19:58;;;;;;;53.40;48.80;;;;;;;6.52;100.00;103332.72;2005921;71;32946;-73
2021/12/19 21:25:44;;;;;;;52.77;48.27;;;;;;;6.66;100.00;103330.41;2018529;71;32833;-76
2021/12/19 21:31:29;;;;;;;50.93;46.97;;;;;;;6.52;100.00;103325.81;2004530;71;32756;-73
2021/12/19 21:43:19;;;;;;;50.60;46.63;;;;;;;6.76;100.00;103325.42;2001042;71;32774;-73
2021/12/19 21:49:05;;;;;;;52.97;48.97;;;;;;;6.62;100.00;103320.82;2011808;71;33389;-72
2021/12/19 21:54:49;;;;;;;50.87;46.97;;;;;;;6.76;100.00;103319.34;2013924;71;32855;-75
2021/12/19 22:00:36;;;;;;;51.73;47.83;;;;;;;6.75;100.00;103318.17;2009362;71;32839;-72
2021/12/19 22:06:23;;;;;;;51.60;47.73;;;;;;;6.82;100.00;103312.17;2000370;71;32863;-73
2021/12/19 22:12:20;;;;;;;48.20;44.30;;;;;;;6.81;100.00;103310.45;1991671;71;32833;-72
2021/12/19 22:17:55;;;;;;;50.00;46.30;;;;;;;6.90;100.00;103312.54;1999089;71;33208;-74
2021/12/19 22:23:40;;;;;;;49.73;45.93;;;;;;;6.90;100.00;103309.25;2010024;71;33317;-73
2021/12/19 22:29:25;;;;;;;47.60;43.90;;;;;;;6.98;100.00;103309.62;2013417;71;33303;-75
2021/12/19 22:35:11;;;;;;;48.70;44.97;;;;;;;7.05;100.00;103304.49;2016832;71;32916;-74
2021/12/19 22:40:56;;;;;;;47.37;43.60;;;;;;;7.16;100.00;103298.39;2004419;71;32915;-73
2021/12/19 22:46:41;;;;;;;46.23;42.67;;;;;;;7.25;100.00;103294.94;2014765;71;32934;-73
2021/12/19 22:52:28;;;;;;;45.47;42.07;;;;;;;7.39;100.00;103295.88;2011849;71;33361;-74
2021/12/19 22:58:13;;;;;;;47.87;44.47;;;;;;;7.42;100.00;103289.92;2004287;71;33344;-72
2021/12/19 23:03:50;;;;;;;48.50;44.80;;;;;;;7.42;100.00;103288.02;2061158;69;28014;-72
2021/12/19 23:06:24;;;;;;;47.83;44.20;;;;;;;7.43;100.00;103288.87;1938197;73;26205;-74
2021/12/19 23:08:54;;;;;;;48.13;44.63;;;;;;;7.43;100.00;103291.63;1935328;73;26224;-72
2021/12/19 23:11:25;;;;;;;47.00;43.60;;;;;;;7.41;100.00;103290.44;1966367;72;26336;-73
2021/12/19 23:13:58;;;;;;;48.13;44.53;;;;;;;7.46;100.00;103289.83;1935778;73;26255;-75
2021/12/19 23:16:39;;;;;;;48.43;44.90;;;;;;;7.48;100.00;103293.27;1945041;73;26204;-72
2021/12/19 23:18:59;;;;;;;46.33;42.93;;;;;;;7.44;100.00;103291.44;1968922;72;26640;-73
2021/12/19 23:21:30;;;;;;;46.93;43.53;;;;;;;7.47;100.00;103291.02;1927875;73;26825;-73
2021/12/19 23:24:00;;;;;;;48.07;44.57;;;;;;;7.46;100.00;103291.22;2013771;70;26216;-73
2021/12/19 23:26:30;;;;;;;45.67;42.37;;;;;;;7.46;100.00;103289.83;1999973;70;26241;-75
2021/12/19 23:31:59;;;;;;;46.50;43.40;;;;;;;7.53;100.00;103276.91;2042605;69;28046;-73
2021/12/19 23:34:30;;;;;;;46.53;43.23;;;;;;;7.53;100.00;103287.41;2011630;70;26677;-75
2021/12/19 23:37:09;;;;;;;47.50;44.10;;;;;;;7.49;100.00;103287.50;1938372;73;26671;-73
2021/12/19 23:39:57;;;;;;;45.83;42.50;;;;;;;7.48;100.00;103267.84;1940984;73;26215;-72
2021/12/19 23:42:37;;;;;;;45.17;41.77;;;;;;;7.53;100.00;103281.06;1936332;74;26179;-70
2021/12/19 23:47:44;;;;;;;46.27;42.97;;;;;;;7.47;100.00;103277.19;1966223;72;26243;-71
2021/12/19 23:50:14;;;;;;;48.00;44.70;;;;;;;7.47;100.00;103270.80;1934615;73;26346;-73
2021/12/19 23:52:47;;;;;;;45.43;42.23;;;;;;;7.47;100.00;103276.33;1930764;73;26232;-71
2021/12/19 23:55:19;;;;;;;47.80;44.50;;;;;;;7.49;100.00;103272.29;1932220;73;26216;-71
2021/12/19 23:57:50;;;;;;;45.53;42.23;;;;;;;7.46;100.00;103273.23;1934173;73;26223;-73
